createdAt,value
2019-02-04T00:28:40.220Z,95.50
2019-02-04T00:28:40.713Z,95.40
2019-02-04T00:28:41.311Z,95.50
2019-02-04T00:28:41.910Z,95.50
2019-02-04T00:28:42.510Z,95.12
2019-02-04T00:28:43.110Z,95.50
2019-02-04T00:28:43.709Z,95.40
2019-02-04T00:28:44.310Z,95.50
2019-02-04T00:29:38.808Z,95.50
2019-02-04T00:29:39.382Z,95.68
2019-02-04T00:29:39.982Z,95.59
2019-02-04T00:29:40.580Z,95.50
2019-02-04T00:29:41.180Z,95.03
2019-02-04T00:29:41.783Z,95.50
2019-02-04T00:29:42.384Z,95.40
2019-02-04T00:29:42.980Z,95.03
2019-02-04T00:30:37.486Z,95.40
2019-02-04T00:30:38.058Z,95.40
2019-02-04T00:30:38.662Z,95.50
2019-02-04T00:30:39.257Z,95.50
2019-02-04T00:30:39.857Z,95.12
2019-02-04T00:30:40.457Z,95.12
2019-02-04T00:30:41.055Z,95.12
2019-02-04T00:30:41.655Z,95.21
2019-02-04T00:31:35.139Z,95.40
2019-02-04T00:31:35.712Z,95.40
2019-02-04T00:31:36.314Z,95.31
2019-02-04T00:31:36.911Z,95.03
2019-02-04T00:31:37.511Z,95.50
2019-02-04T00:31:38.111Z,95.50
2019-02-04T00:31:38.713Z,95.21
2019-02-04T00:31:39.308Z,95.03
2019-02-04T00:32:32.791Z,95.03
2019-02-04T00:32:33.363Z,95.21
2019-02-04T00:32:33.963Z,95.21
2019-02-04T00:32:34.562Z,95.21
2019-02-04T00:32:35.163Z,95.03
2019-02-04T00:32:35.761Z,95.12
2019-02-04T00:32:36.360Z,95.12
2019-02-04T00:32:36.959Z,95.12
2019-02-04T00:33:30.443Z,95.21
2019-02-04T00:33:31.017Z,95.31
2019-02-04T00:33:31.614Z,94.93
2019-02-04T00:33:32.219Z,95.21
2019-02-04T00:33:32.815Z,95.40
2019-02-04T00:33:33.414Z,95.40
2019-02-04T00:33:34.015Z,95.21
2019-02-04T00:33:34.616Z,95.31
2019-02-04T00:34:28.096Z,95.40
2019-02-04T00:34:28.668Z,95.21
2019-02-04T00:34:29.268Z,95.40
2019-02-04T00:34:29.868Z,95.31
2019-02-04T00:34:30.466Z,95.31
2019-02-04T00:34:31.073Z,95.31
2019-02-04T00:34:31.667Z,95.40
2019-02-04T00:34:32.265Z,95.31
2019-02-04T00:35:25.746Z,95.50
2019-02-04T00:35:26.323Z,95.40
2019-02-04T00:35:26.918Z,95.40
2019-02-04T00:35:27.522Z,95.50
2019-02-04T00:35:28.118Z,95.40
2019-02-04T00:35:28.719Z,95.40
2019-02-04T00:35:29.318Z,95.59
2019-02-04T00:35:29.917Z,95.12
2019-02-04T00:36:23.401Z,94.65
2019-02-04T00:36:23.971Z,94.56
2019-02-04T00:36:24.573Z,94.74
2019-02-04T00:36:25.171Z,94.84
2019-02-04T00:36:25.771Z,94.65
2019-02-04T00:36:26.379Z,94.56
2019-02-04T00:36:26.969Z,94.65
2019-02-04T00:36:27.572Z,94.84
2019-02-04T00:37:21.066Z,94.74
2019-02-04T00:37:21.623Z,94.74
2019-02-04T00:37:22.227Z,94.84
2019-02-04T00:37:22.823Z,94.84
2019-02-04T00:37:23.422Z,94.74
2019-02-04T00:37:24.022Z,94.74
2019-02-04T00:37:24.622Z,94.84
2019-02-04T00:37:25.221Z,95.03
2019-02-04T00:38:18.703Z,95.03
2019-02-04T00:38:19.276Z,95.12
2019-02-04T00:38:19.876Z,94.46
2019-02-04T00:38:20.474Z,94.93
2019-02-04T00:38:21.072Z,95.21
2019-02-04T00:38:21.674Z,94.93
2019-02-04T00:38:22.274Z,95.03
2019-02-04T00:38:22.980Z,94.93
2019-02-04T00:39:16.354Z,94.65
2019-02-04T00:39:16.927Z,94.46
2019-02-04T00:39:17.526Z,94.56
2019-02-04T00:39:18.126Z,94.56
2019-02-04T00:39:18.728Z,94.74
2019-02-04T00:39:19.328Z,94.56
2019-02-04T00:39:19.925Z,94.56
2019-02-04T00:39:20.531Z,94.46
2019-02-04T00:40:26.704Z,94.65
2019-02-04T00:40:27.276Z,94.65
2019-02-04T00:40:27.876Z,94.65
2019-02-04T00:40:28.476Z,94.56
2019-02-04T00:40:29.077Z,94.65
2019-02-04T00:40:29.676Z,94.65
2019-02-04T00:40:30.276Z,94.56
2019-02-04T00:40:30.877Z,94.65
2019-02-04T00:41:24.360Z,94.46
2019-02-04T00:41:24.928Z,94.74
2019-02-04T00:41:25.529Z,94.46
2019-02-04T00:41:26.131Z,94.56
2019-02-04T00:41:26.732Z,94.56
2019-02-04T00:41:27.328Z,94.74
2019-02-04T00:41:27.928Z,94.74
2019-02-04T00:41:28.545Z,94.56
2019-02-04T00:42:23.031Z,94.65
2019-02-04T00:42:23.603Z,94.65
2019-02-04T00:42:24.203Z,94.65
2019-02-04T00:42:24.802Z,94.65
2019-02-04T00:42:25.402Z,94.65
2019-02-04T00:42:26.003Z,94.65
2019-02-04T00:42:26.602Z,94.65
2019-02-04T00:42:27.203Z,94.74
2019-02-04T00:43:20.682Z,94.65
2019-02-04T00:43:21.256Z,94.84
2019-02-04T00:43:21.855Z,94.65
2019-02-04T00:43:22.456Z,94.65
2019-02-04T00:43:23.055Z,94.46
2019-02-04T00:43:23.654Z,94.93
2019-02-04T00:43:24.254Z,94.84
2019-02-04T00:43:24.857Z,94.74
2019-02-04T00:44:19.366Z,94.74
2019-02-04T00:44:19.931Z,94.74
2019-02-04T00:44:20.531Z,94.84
2019-02-04T00:44:21.132Z,94.84
2019-02-04T00:44:21.730Z,94.84
2019-02-04T00:44:22.330Z,94.74
2019-02-04T00:44:22.933Z,94.84
2019-02-04T00:44:23.533Z,94.65
2019-02-04T00:45:17.012Z,95.03
2019-02-04T00:45:17.585Z,94.93
2019-02-04T00:45:18.185Z,94.93
2019-02-04T00:45:18.783Z,94.84
2019-02-04T00:45:19.382Z,94.93
2019-02-04T00:45:19.984Z,95.12
2019-02-04T00:45:20.582Z,95.03
2019-02-04T00:45:21.186Z,95.03
2019-02-04T00:46:15.687Z,93.42
2019-02-04T00:46:16.257Z,94.08
2019-02-04T00:46:16.857Z,93.99
2019-02-04T00:46:17.458Z,93.42
2019-02-04T00:46:18.057Z,93.23
2019-02-04T00:46:18.658Z,93.42
2019-02-04T00:46:19.262Z,93.70
2019-02-04T00:46:19.863Z,93.51
2019-02-04T00:47:13.338Z,92.80
2019-02-04T00:47:13.910Z,92.85
2019-02-04T00:47:14.512Z,92.85
2019-02-04T00:47:15.111Z,92.85
2019-02-04T00:47:15.712Z,92.94
2019-02-04T00:47:16.310Z,92.85
2019-02-04T00:47:16.910Z,92.85
2019-02-04T00:47:17.512Z,92.90
2019-02-04T00:48:10.988Z,92.05
2019-02-04T00:48:11.563Z,92.05
2019-02-04T00:48:12.162Z,92.05
2019-02-04T00:48:12.760Z,92.33
2019-02-04T00:48:13.361Z,92.05
2019-02-04T00:48:13.961Z,92.05
2019-02-04T00:48:14.561Z,92.14
2019-02-04T00:48:15.160Z,92.52
2019-02-04T00:49:09.666Z,91.39
2019-02-04T00:49:10.239Z,91.77
2019-02-04T00:49:10.837Z,91.58
2019-02-04T00:49:11.437Z,91.58
2019-02-04T00:49:12.037Z,91.67
2019-02-04T00:49:12.636Z,91.77
2019-02-04T00:49:13.237Z,91.77
2019-02-04T00:49:13.839Z,91.77
2019-02-04T00:50:08.341Z,91.58
2019-02-04T00:50:08.914Z,91.58
2019-02-04T00:50:09.513Z,91.48
2019-02-04T00:50:10.113Z,91.10
2019-02-04T00:50:10.713Z,91.48
2019-02-04T00:50:11.316Z,91.58
2019-02-04T00:50:11.912Z,91.58
2019-02-04T00:50:12.513Z,91.48
2019-02-04T00:51:05.992Z,91.10
2019-02-04T00:51:06.566Z,91.29
2019-02-04T00:51:07.165Z,91.29
2019-02-04T00:51:07.765Z,91.01
2019-02-04T00:51:08.365Z,91.01
2019-02-04T00:51:08.964Z,91.29
2019-02-04T00:51:09.565Z,91.20
2019-02-04T00:51:10.165Z,91.29
2019-02-04T00:52:03.644Z,91.20
2019-02-04T00:52:04.217Z,90.82
2019-02-04T00:52:04.817Z,91.29
2019-02-04T00:52:05.419Z,91.20
2019-02-04T00:52:06.016Z,91.20
2019-02-04T00:52:06.616Z,91.20
2019-02-04T00:52:07.218Z,91.29
2019-02-04T00:52:07.818Z,91.20
2019-02-04T00:53:02.321Z,91.29
2019-02-04T00:53:02.904Z,91.29
2019-02-04T00:53:03.491Z,91.29
2019-02-04T00:53:04.092Z,91.29
2019-02-04T00:53:04.692Z,91.39
2019-02-04T00:53:05.294Z,91.29
2019-02-04T00:53:05.888Z,91.29
2019-02-04T00:53:06.495Z,91.29
2019-02-04T00:53:59.973Z,91.39
2019-02-04T00:54:00.545Z,91.01
2019-02-04T00:54:01.145Z,91.20
2019-02-04T00:54:01.745Z,91.01
2019-02-04T00:54:02.345Z,91.01
2019-02-04T00:54:02.946Z,90.91
2019-02-04T00:54:03.544Z,91.10
2019-02-04T00:54:04.145Z,91.01
2019-02-04T00:54:57.623Z,91.01
2019-02-04T00:54:58.199Z,91.01
2019-02-04T00:54:58.796Z,90.82
2019-02-04T00:54:59.400Z,91.20
2019-02-04T00:55:00.103Z,91.01
2019-02-04T00:55:00.600Z,91.01
2019-02-04T00:55:01.198Z,90.82
2019-02-04T00:55:01.798Z,90.91
2019-02-04T00:55:55.278Z,91.58
2019-02-04T00:55:55.848Z,91.01
2019-02-04T00:55:56.450Z,91.48
2019-02-04T00:55:57.048Z,91.01
2019-02-04T00:55:57.649Z,91.48
2019-02-04T00:55:58.247Z,91.58
2019-02-04T00:55:58.848Z,91.58
2019-02-04T00:55:59.448Z,91.39
2019-02-04T00:56:53.951Z,91.10
2019-02-04T00:56:54.538Z,91.39
2019-02-04T00:56:55.123Z,91.48
2019-02-04T00:56:55.724Z,91.01
2019-02-04T00:56:56.323Z,91.29
2019-02-04T00:56:56.923Z,91.48
2019-02-04T00:56:57.522Z,91.10
2019-02-04T00:56:58.123Z,91.10
2019-02-04T00:57:52.626Z,91.58
2019-02-04T00:57:53.198Z,91.77
2019-02-04T00:57:53.800Z,91.58
2019-02-04T00:57:54.399Z,91.77
2019-02-04T00:57:54.997Z,91.67
2019-02-04T00:57:55.602Z,91.67
2019-02-04T00:57:56.198Z,91.77
2019-02-04T00:57:56.797Z,91.58
2019-02-04T00:58:50.280Z,91.39
2019-02-04T00:58:50.859Z,91.39
2019-02-04T00:58:51.453Z,91.39
2019-02-04T00:58:52.052Z,91.96
2019-02-04T00:58:52.651Z,91.77
2019-02-04T00:58:53.250Z,91.86
2019-02-04T00:58:53.850Z,91.39
2019-02-04T00:58:54.450Z,91.77
2019-02-04T00:59:47.932Z,91.67
2019-02-04T00:59:48.559Z,91.58
2019-02-04T00:59:49.103Z,91.86
2019-02-04T00:59:49.703Z,91.58
2019-02-04T00:59:50.303Z,91.67
2019-02-04T00:59:50.904Z,91.58
2019-02-04T00:59:51.502Z,91.86
2019-02-04T00:59:52.106Z,91.48
2019-02-04T01:00:46.606Z,92.05
2019-02-04T01:00:47.180Z,91.48
2019-02-04T01:00:47.780Z,91.48
2019-02-04T01:00:48.378Z,91.96
2019-02-04T01:00:48.978Z,91.77
2019-02-04T01:00:49.577Z,91.67
2019-02-04T01:00:50.179Z,91.48
2019-02-04T01:00:50.782Z,91.96
2019-02-04T01:01:44.258Z,92.14
2019-02-04T01:01:44.831Z,92.14
2019-02-04T01:01:45.433Z,92.05
2019-02-04T01:01:46.033Z,92.14
2019-02-04T01:01:46.630Z,92.14
2019-02-04T01:01:47.230Z,92.14
2019-02-04T01:01:47.830Z,92.14
2019-02-04T01:01:48.429Z,92.14
2019-02-04T01:02:41.910Z,92.24
2019-02-04T01:02:42.482Z,92.14
2019-02-04T01:02:43.081Z,92.33
2019-02-04T01:02:43.682Z,92.43
2019-02-04T01:02:44.284Z,92.52
2019-02-04T01:02:44.885Z,92.52
2019-02-04T01:02:45.482Z,92.52
2019-02-04T01:02:46.084Z,92.33
2019-02-04T01:03:39.560Z,92.33
2019-02-04T01:03:40.135Z,92.24
2019-02-04T01:03:40.735Z,92.52
2019-02-04T01:03:41.337Z,92.14
2019-02-04T01:03:41.951Z,92.33
2019-02-04T01:03:42.551Z,92.05
2019-02-04T01:03:43.131Z,92.52
2019-02-04T01:03:43.733Z,92.14
2019-02-04T01:04:37.224Z,92.52
2019-02-04T01:04:37.797Z,92.52
2019-02-04T01:04:38.386Z,92.90
2019-02-04T01:04:38.986Z,92.43
2019-02-04T01:04:39.585Z,92.90
2019-02-04T01:04:40.185Z,92.71
2019-02-04T01:04:40.785Z,92.61
2019-02-04T01:04:41.386Z,92.71
2019-02-04T01:05:34.866Z,93.37
2019-02-04T01:05:35.442Z,92.80
2019-02-04T01:05:36.041Z,93.18
2019-02-04T01:05:36.637Z,93.37
2019-02-04T01:05:37.237Z,92.90
2019-02-04T01:05:37.837Z,92.71
2019-02-04T01:05:38.437Z,93.18
2019-02-04T01:05:39.036Z,93.28
2019-02-04T01:06:32.515Z,92.80
2019-02-04T01:06:33.090Z,92.99
2019-02-04T01:06:33.689Z,92.80
2019-02-04T01:06:34.290Z,92.80
2019-02-04T01:06:34.909Z,92.80
2019-02-04T01:06:35.489Z,92.99
2019-02-04T01:06:36.087Z,92.80
2019-02-04T01:06:36.690Z,92.80
2019-02-04T01:07:31.191Z,93.56
2019-02-04T01:07:31.764Z,93.37
2019-02-04T01:07:32.364Z,93.56
2019-02-04T01:07:32.964Z,93.37
2019-02-04T01:07:33.563Z,93.75
2019-02-04T01:07:34.172Z,93.66
2019-02-04T01:07:34.762Z,93.66
2019-02-04T01:07:35.360Z,93.75
2019-02-04T01:08:28.844Z,93.37
2019-02-04T01:08:29.421Z,93.37
2019-02-04T01:08:30.017Z,93.28
2019-02-04T01:08:30.617Z,93.47
2019-02-04T01:08:31.216Z,93.47
2019-02-04T01:08:31.818Z,93.47
2019-02-04T01:08:32.416Z,93.47
2019-02-04T01:08:33.016Z,93.47
2019-02-04T01:09:26.506Z,93.66
2019-02-04T01:09:27.069Z,93.84
2019-02-04T01:09:27.668Z,93.94
2019-02-04T01:09:28.269Z,93.84
2019-02-04T01:09:28.870Z,93.56
2019-02-04T01:09:29.467Z,93.66
2019-02-04T01:09:30.068Z,93.75
2019-02-04T01:09:30.668Z,93.66
2019-02-04T01:10:25.170Z,94.13
2019-02-04T01:10:25.743Z,94.13
2019-02-04T01:10:26.343Z,94.13
2019-02-04T01:10:26.944Z,94.03
2019-02-04T01:10:27.544Z,93.75
2019-02-04T01:10:28.148Z,94.03
2019-02-04T01:10:28.744Z,93.84
2019-02-04T01:10:29.345Z,94.13
2019-02-04T01:11:22.823Z,94.22
2019-02-04T01:11:23.396Z,94.13
2019-02-04T01:11:23.996Z,94.32
2019-02-04T01:11:24.594Z,94.22
2019-02-04T01:11:25.195Z,94.22
2019-02-04T01:11:25.794Z,93.94
2019-02-04T01:11:26.393Z,94.32
2019-02-04T01:11:26.996Z,95.07
2019-02-04T01:12:20.474Z,94.70
2019-02-04T01:12:21.048Z,94.89
2019-02-04T01:12:21.647Z,94.70
2019-02-04T01:12:22.247Z,94.70
2019-02-04T01:12:22.850Z,94.89
2019-02-04T01:12:23.445Z,94.89
2019-02-04T01:12:24.046Z,94.89
2019-02-04T01:12:24.646Z,94.89
2019-02-04T01:13:19.150Z,94.89
2019-02-04T01:13:19.723Z,94.60
2019-02-04T01:13:20.323Z,94.89
2019-02-04T01:13:20.922Z,94.89
2019-02-04T01:13:21.522Z,94.70
2019-02-04T01:13:22.122Z,94.89
2019-02-04T01:13:22.816Z,94.89
2019-02-04T01:13:23.322Z,94.79
2019-02-04T01:14:17.824Z,95.36
2019-02-04T01:14:18.398Z,95.07
2019-02-04T01:14:18.998Z,95.54
2019-02-04T01:14:19.597Z,95.54
2019-02-04T01:14:20.198Z,95.36
2019-02-04T01:14:20.801Z,95.17
2019-02-04T01:14:21.397Z,95.45
2019-02-04T01:14:21.997Z,95.45
2019-02-04T01:15:16.504Z,95.54
2019-02-04T01:15:17.074Z,95.54
2019-02-04T01:15:17.673Z,95.83
2019-02-04T01:15:18.274Z,95.07
2019-02-04T01:15:18.957Z,95.73
2019-02-04T01:15:19.472Z,95.83
2019-02-04T01:15:20.077Z,95.54
2019-02-04T01:15:20.674Z,95.07
2019-02-04T01:16:15.178Z,95.64
2019-02-04T01:16:15.750Z,95.64
2019-02-04T01:16:16.349Z,96.02
2019-02-04T01:16:16.949Z,96.02
2019-02-04T01:16:17.550Z,95.73
2019-02-04T01:16:18.148Z,95.73
2019-02-04T01:16:18.748Z,95.73
2019-02-04T01:16:19.352Z,95.73
2019-02-04T01:17:12.830Z,96.59
2019-02-04T01:17:13.405Z,96.59
2019-02-04T01:17:14.002Z,96.87
2019-02-04T01:17:14.603Z,96.59
2019-02-04T01:17:15.201Z,96.68
2019-02-04T01:17:15.801Z,96.78
2019-02-04T01:17:16.402Z,96.59
2019-02-04T01:17:17.001Z,96.78
2019-02-04T01:18:11.504Z,96.59
2019-02-04T01:18:12.078Z,96.59
2019-02-04T01:18:12.682Z,96.49
2019-02-04T01:18:13.276Z,96.59
2019-02-04T01:18:13.877Z,96.59
2019-02-04T01:18:14.477Z,96.59
2019-02-04T01:18:15.076Z,96.59
2019-02-04T01:18:15.678Z,96.68
2019-02-04T01:19:09.156Z,96.68
2019-02-04T01:19:09.730Z,97.15
2019-02-04T01:19:10.328Z,97.06
2019-02-04T01:19:10.928Z,97.25
2019-02-04T01:19:11.530Z,97.25
2019-02-04T01:19:12.128Z,97.25
2019-02-04T01:19:12.727Z,97.15
2019-02-04T01:19:13.329Z,97.25
2019-02-04T01:20:06.809Z,96.68
2019-02-04T01:20:07.381Z,96.59
2019-02-04T01:20:07.982Z,96.87
2019-02-04T01:20:08.583Z,97.06
2019-02-04T01:20:09.180Z,96.68
2019-02-04T01:20:09.780Z,96.59
2019-02-04T01:20:10.382Z,97.06
2019-02-04T01:20:10.981Z,96.78
2019-02-04T01:21:05.483Z,97.63
2019-02-04T01:21:06.060Z,97.81
2019-02-04T01:21:06.656Z,96.96
2019-02-04T01:21:07.259Z,97.25
2019-02-04T01:21:07.871Z,97.15
2019-02-04T01:21:08.455Z,97.06
2019-02-04T01:21:09.060Z,97.34
2019-02-04T01:21:09.655Z,97.72
2019-02-04T01:22:04.159Z,97.63
2019-02-04T01:22:04.732Z,97.53
2019-02-04T01:22:05.331Z,97.44
2019-02-04T01:22:05.932Z,97.72
2019-02-04T01:22:06.532Z,97.53
2019-02-04T01:22:07.134Z,97.53
2019-02-04T01:22:07.730Z,97.72
2019-02-04T01:22:08.330Z,97.72
2019-02-04T01:23:01.813Z,97.63
2019-02-04T01:23:02.385Z,97.63
2019-02-04T01:23:02.985Z,97.63
2019-02-04T01:23:03.585Z,97.72
2019-02-04T01:23:04.183Z,97.81
2019-02-04T01:23:04.783Z,97.81
2019-02-04T01:23:05.387Z,97.63
2019-02-04T01:23:05.983Z,97.81
2019-02-04T01:24:00.487Z,98.00
2019-02-04T01:24:01.059Z,98.38
2019-02-04T01:24:01.659Z,98.19
2019-02-04T01:24:02.259Z,98.28
2019-02-04T01:24:02.859Z,98.28
2019-02-04T01:24:03.461Z,98.19
2019-02-04T01:24:04.055Z,98.38
2019-02-04T01:24:04.656Z,98.00
2019-02-04T01:24:59.163Z,98.66
2019-02-04T01:24:59.736Z,98.95
2019-02-04T01:25:00.335Z,98.66
2019-02-04T01:25:00.934Z,98.47
2019-02-04T01:25:01.536Z,98.95
2019-02-04T01:25:02.137Z,98.66
2019-02-04T01:25:02.745Z,98.38
2019-02-04T01:25:03.334Z,98.57
2019-02-04T01:25:57.837Z,99.04
2019-02-04T01:25:58.411Z,99.14
2019-02-04T01:25:59.010Z,99.14
2019-02-04T01:25:59.609Z,99.04
2019-02-04T01:26:00.209Z,99.14
2019-02-04T01:26:00.810Z,99.14
2019-02-04T01:26:01.412Z,99.04
2019-02-04T01:26:02.012Z,99.14
2019-02-04T01:26:55.491Z,98.85
2019-02-04T01:26:56.064Z,99.23
2019-02-04T01:26:56.662Z,99.04
2019-02-04T01:26:57.264Z,98.95
2019-02-04T01:26:57.863Z,99.04
2019-02-04T01:26:58.463Z,98.95
2019-02-04T01:26:59.124Z,98.95
2019-02-04T01:26:59.664Z,98.95
2019-02-04T01:27:54.165Z,99.52
2019-02-04T01:27:54.740Z,99.71
2019-02-04T01:27:55.338Z,99.61
2019-02-04T01:27:55.939Z,99.71
2019-02-04T01:27:56.538Z,99.61
2019-02-04T01:27:57.140Z,99.14
2019-02-04T01:27:57.736Z,99.61
2019-02-04T01:27:58.334Z,99.61
2019-02-04T01:28:52.841Z,99.61
2019-02-04T01:28:53.414Z,99.33
2019-02-04T01:28:54.013Z,99.61
2019-02-04T01:28:54.613Z,99.52
2019-02-04T01:28:55.213Z,99.42
2019-02-04T01:28:55.813Z,99.33
2019-02-04T01:28:56.416Z,99.33
2019-02-04T01:28:57.014Z,99.52
2019-02-04T01:29:50.492Z,99.89
2019-02-04T01:29:51.067Z,99.80
2019-02-04T01:29:51.667Z,99.80
2019-02-04T01:29:52.267Z,99.71
2019-02-04T01:29:52.867Z,99.71
2019-02-04T01:29:53.476Z,99.80
2019-02-04T01:29:54.066Z,99.71
2019-02-04T01:29:54.664Z,99.71
2019-02-04T01:30:48.144Z,99.99
2019-02-04T01:30:48.730Z,99.99
2019-02-04T01:30:49.318Z,99.99
2019-02-04T01:30:49.920Z,99.99
2019-02-04T01:30:50.517Z,99.99
2019-02-04T01:30:51.117Z,99.99
2019-02-04T01:30:51.717Z,99.99
2019-02-04T01:30:52.317Z,99.99
2019-02-04T01:31:46.822Z,99.99
2019-02-04T01:31:47.394Z,99.99
2019-02-04T01:31:47.991Z,99.99
2019-02-04T01:31:48.621Z,99.99
2019-02-04T01:31:49.192Z,99.99
2019-02-04T01:31:49.794Z,99.99
2019-02-04T01:31:50.391Z,99.99
2019-02-04T01:31:50.992Z,99.99
2019-02-04T01:32:44.473Z,99.99
2019-02-04T01:32:45.045Z,99.99
2019-02-04T01:32:45.645Z,99.99
2019-02-04T01:32:46.253Z,99.99
2019-02-04T01:32:46.844Z,99.99
2019-02-04T01:32:47.444Z,99.99
2019-02-04T01:32:48.044Z,99.99
2019-02-04T01:32:48.644Z,99.99
2019-02-04T01:33:42.124Z,99.99
2019-02-04T01:33:42.697Z,99.99
2019-02-04T01:33:43.298Z,99.99
2019-02-04T01:33:43.897Z,99.99
2019-02-04T01:33:44.496Z,99.99
2019-02-04T01:33:45.098Z,99.99
2019-02-04T01:33:45.697Z,99.99
2019-02-04T01:33:46.296Z,99.99
2019-02-04T01:34:39.777Z,99.99
2019-02-04T01:34:40.348Z,99.99
2019-02-04T01:34:40.947Z,99.99
2019-02-04T01:34:41.556Z,99.99
2019-02-04T01:34:42.148Z,99.99
2019-02-04T01:34:42.748Z,99.99
2019-02-04T01:34:43.347Z,99.99
2019-02-04T01:34:43.948Z,99.99
2019-02-04T01:35:37.428Z,99.99
2019-02-04T01:35:38.001Z,99.99
2019-02-04T01:35:38.605Z,99.99
2019-02-04T01:35:39.202Z,99.99
2019-02-04T01:35:39.800Z,99.99
2019-02-04T01:35:40.399Z,99.99
2019-02-04T01:35:41.000Z,99.99
2019-02-04T01:35:41.602Z,99.99
2019-02-04T01:36:36.104Z,99.99
2019-02-04T01:36:36.675Z,99.99
2019-02-04T01:36:37.275Z,99.99
2019-02-04T01:36:37.875Z,99.99
2019-02-04T01:36:38.475Z,99.99
2019-02-04T01:36:39.075Z,99.99
2019-02-04T01:36:39.674Z,99.99
2019-02-04T01:36:40.274Z,99.99
2019-02-04T01:37:33.759Z,99.99
2019-02-04T01:37:34.327Z,99.99
2019-02-04T01:37:34.927Z,99.99
2019-02-04T01:37:35.528Z,99.99
2019-02-04T01:37:36.127Z,99.99
2019-02-04T01:37:36.726Z,99.99
2019-02-04T01:37:37.327Z,99.99
2019-02-04T01:37:37.927Z,99.99
2019-02-04T01:38:32.430Z,99.99
2019-02-04T01:38:33.002Z,99.99
2019-02-04T01:38:33.710Z,99.99
2019-02-04T01:38:34.206Z,99.99
2019-02-04T01:38:34.802Z,99.99
2019-02-04T01:38:35.402Z,99.99
2019-02-04T01:38:36.002Z,99.99
2019-02-04T01:38:36.603Z,99.99
2019-02-04T01:39:30.083Z,99.99
2019-02-04T01:39:30.656Z,99.99
2019-02-04T01:39:31.257Z,99.99
2019-02-04T01:39:31.855Z,99.99
2019-02-04T01:39:32.455Z,99.99
2019-02-04T01:39:33.054Z,99.99
2019-02-04T01:39:33.656Z,99.99
2019-02-04T01:39:34.254Z,99.99
2019-02-04T01:40:28.756Z,99.99
2019-02-04T01:40:29.329Z,99.99
2019-02-04T01:40:29.929Z,99.99
2019-02-04T01:40:30.530Z,99.99
2019-02-04T01:40:31.130Z,99.99
2019-02-04T01:40:31.743Z,99.99
2019-02-04T01:40:32.329Z,99.99
2019-02-04T01:40:32.930Z,99.99
2019-02-04T01:41:27.433Z,99.99
2019-02-04T01:41:28.005Z,99.99
2019-02-04T01:41:28.607Z,99.99
2019-02-04T01:41:29.205Z,99.99
2019-02-04T01:41:29.805Z,99.99
2019-02-04T01:41:33.078Z,99.99
2019-02-04T01:41:33.210Z,99.99
2019-02-04T01:41:33.341Z,99.99
2019-02-04T01:42:25.085Z,99.99
2019-02-04T01:42:25.660Z,99.99
2019-02-04T01:42:26.257Z,99.99
2019-02-04T01:42:26.858Z,99.99
2019-02-04T01:42:27.467Z,99.99
2019-02-04T01:42:28.056Z,99.99
2019-02-04T01:42:28.655Z,99.99
2019-02-04T01:42:29.256Z,99.99
2019-02-04T01:43:22.737Z,99.99
2019-02-04T01:43:23.310Z,99.99
2019-02-04T01:43:23.910Z,99.99
2019-02-04T01:43:24.514Z,99.99
2019-02-04T01:43:25.110Z,99.99
2019-02-04T01:43:25.708Z,99.99
2019-02-04T01:43:26.308Z,99.99
2019-02-04T01:43:26.911Z,99.99
2019-02-04T01:44:20.389Z,99.99
2019-02-04T01:44:20.961Z,99.99
2019-02-04T01:44:21.561Z,99.99
2019-02-04T01:44:22.177Z,99.99
2019-02-04T01:44:22.761Z,99.99
2019-02-04T01:44:23.360Z,99.99
2019-02-04T01:44:23.961Z,99.99
2019-02-04T01:44:24.561Z,99.99
2019-02-04T01:45:19.063Z,99.99
2019-02-04T01:45:19.637Z,99.99
2019-02-04T01:45:20.258Z,99.99
2019-02-04T01:45:20.835Z,99.99
2019-02-04T01:45:21.441Z,99.99
2019-02-04T01:45:22.035Z,99.99
2019-02-04T01:45:22.636Z,99.99
2019-02-04T01:45:23.234Z,99.99
2019-02-04T01:46:16.716Z,99.99
2019-02-04T01:46:17.291Z,99.99
2019-02-04T01:46:17.888Z,99.99
2019-02-04T01:46:18.490Z,99.99
2019-02-04T01:46:19.100Z,99.99
2019-02-04T01:46:19.689Z,99.99
2019-02-04T01:46:20.288Z,99.99
2019-02-04T01:46:20.889Z,99.99
2019-02-04T01:47:15.392Z,99.99
2019-02-04T01:47:15.964Z,99.99
2019-02-04T01:47:16.565Z,99.99
2019-02-04T01:47:17.166Z,99.99
2019-02-04T01:47:17.763Z,99.99
2019-02-04T01:47:18.364Z,99.99
2019-02-04T01:47:18.964Z,99.99
2019-02-04T01:47:19.564Z,99.99
2019-02-04T01:48:13.044Z,99.99
2019-02-04T01:48:13.617Z,99.99
2019-02-04T01:48:14.216Z,99.99
2019-02-04T01:48:14.815Z,99.99
2019-02-04T01:48:15.415Z,99.99
2019-02-04T01:48:16.015Z,99.99
2019-02-04T01:48:16.614Z,99.99
2019-02-04T01:48:17.228Z,99.99
2019-02-04T01:49:11.720Z,99.99
2019-02-04T01:49:12.291Z,99.99
2019-02-04T01:49:12.890Z,99.99
2019-02-04T01:49:13.490Z,99.99
2019-02-04T01:49:14.090Z,99.99
2019-02-04T01:49:14.690Z,99.99
2019-02-04T01:49:15.289Z,99.99
2019-02-04T01:49:15.896Z,99.99
2019-02-04T01:50:10.394Z,99.99
2019-02-04T01:50:10.967Z,99.99
2019-02-04T01:50:11.566Z,99.99
2019-02-04T01:50:12.166Z,99.99
2019-02-04T01:50:12.765Z,99.99
2019-02-04T01:50:13.366Z,99.99
2019-02-04T01:50:13.965Z,99.99
2019-02-04T01:50:14.569Z,99.99
2019-02-04T01:51:09.069Z,99.99
2019-02-04T01:51:09.644Z,99.99
2019-02-04T01:51:10.242Z,99.99
2019-02-04T01:51:10.842Z,99.99
2019-02-04T01:51:11.442Z,99.99
2019-02-04T01:51:12.042Z,99.99
2019-02-04T01:51:12.643Z,99.99
2019-02-04T01:51:13.240Z,99.99
2019-02-04T01:52:07.745Z,99.99
2019-02-04T01:52:08.319Z,99.99
2019-02-04T01:52:08.918Z,99.99
2019-02-04T01:52:09.518Z,99.99
2019-02-04T01:52:10.118Z,99.99
2019-02-04T01:52:10.717Z,99.99
2019-02-04T01:52:11.317Z,99.99
2019-02-04T01:52:11.919Z,99.99
2019-02-04T01:53:05.399Z,99.99
2019-02-04T01:53:05.971Z,99.99
2019-02-04T01:53:06.571Z,99.99
2019-02-04T01:53:07.171Z,99.99
2019-02-04T01:53:07.771Z,99.99
2019-02-04T01:53:08.370Z,99.99
2019-02-04T01:53:09.021Z,99.99
2019-02-04T01:53:09.572Z,99.99
2019-02-04T01:54:03.050Z,99.99
2019-02-04T01:54:03.621Z,99.99
2019-02-04T01:54:04.222Z,99.99
2019-02-04T01:54:04.822Z,99.99
2019-02-04T01:54:05.422Z,99.99
2019-02-04T01:54:06.021Z,99.99
2019-02-04T01:54:06.622Z,99.99
2019-02-04T01:54:07.222Z,99.99
2019-02-04T01:55:01.726Z,99.99
2019-02-04T01:55:02.298Z,99.99
2019-02-04T01:55:02.897Z,99.99
2019-02-04T01:55:03.497Z,99.99
2019-02-04T01:55:04.096Z,99.99
2019-02-04T01:55:04.696Z,99.99
2019-02-04T01:55:05.296Z,99.99
2019-02-04T01:55:05.901Z,99.99
2019-02-04T01:55:59.377Z,99.99
2019-02-04T01:55:59.950Z,99.99
2019-02-04T01:56:00.550Z,99.99
2019-02-04T01:56:01.150Z,99.99
2019-02-04T01:56:01.750Z,99.99
2019-02-04T01:56:02.349Z,99.99
2019-02-04T01:56:02.948Z,99.99
2019-02-04T01:56:03.549Z,99.99
2019-02-04T01:56:58.052Z,99.99
2019-02-04T01:56:58.625Z,99.99
2019-02-04T01:56:59.225Z,99.99
2019-02-04T01:56:59.824Z,99.99
2019-02-04T01:57:00.425Z,99.99
2019-02-04T01:57:01.024Z,99.99
2019-02-04T01:57:01.625Z,99.99
2019-02-04T01:57:02.225Z,99.99
2019-02-04T01:57:56.730Z,99.99
2019-02-04T01:57:57.300Z,99.99
2019-02-04T01:57:57.900Z,99.99
2019-02-04T01:57:58.500Z,99.99
2019-02-04T01:57:59.100Z,99.99
2019-02-04T01:57:59.713Z,99.99
2019-02-04T01:58:00.300Z,99.99
2019-02-04T01:58:00.900Z,99.99
2019-02-04T01:58:55.404Z,99.99
2019-02-04T01:58:55.977Z,99.99
2019-02-04T01:58:56.575Z,99.99
2019-02-04T01:58:57.177Z,99.99
2019-02-04T01:58:57.775Z,99.99
2019-02-04T01:58:58.375Z,99.99
2019-02-04T01:58:58.977Z,99.99
2019-02-04T01:58:59.577Z,99.99
2019-02-04T01:59:54.078Z,99.99
2019-02-04T01:59:54.653Z,99.99
2019-02-04T01:59:55.250Z,99.99
2019-02-04T01:59:55.852Z,99.99
2019-02-04T01:59:56.452Z,99.99
2019-02-04T01:59:57.052Z,99.99
2019-02-04T01:59:57.651Z,99.99
2019-02-04T01:59:58.253Z,99.99
2019-02-04T02:00:51.739Z,99.99
2019-02-04T02:00:52.304Z,99.99
2019-02-04T02:00:52.903Z,99.99
2019-02-04T02:00:53.505Z,99.99
2019-02-04T02:00:54.103Z,99.99
2019-02-04T02:00:54.788Z,99.99
2019-02-04T02:00:55.303Z,99.99
2019-02-04T02:00:55.904Z,99.99
2019-02-04T02:01:49.384Z,99.99
2019-02-04T02:01:49.956Z,99.99
2019-02-04T02:01:50.557Z,99.99
2019-02-04T02:01:51.157Z,99.99
2019-02-04T02:01:51.755Z,99.99